If you wish to contribute or participate in the discussions about articles you are invited to join SKYbrary as a registered user

 Actions

Akhiok Airport

From SKYbrary Wiki

PAKH /
Revision as of 06:08, 17 June 2018 by Timo.Kouwenhoven (talk | contribs)
(diff) ← Older revision | Latest revision (diff) | Newer revision → (diff)
Airport
ICAO: PAKH – IATA: AKK
Summary
Name Akhiok Airport
Region North America
Territory Alaska US.gif
Location Akhiok, Alaska
Serving Akhiok
Elevation 13.411 m
44 ft
44 ft13.411 m
Type small airport
Coordinates 56° 56' 19.00" N, 154° 10' 57.00" W
Runways
Designator Length Width Surface ROPS
4/22 951 m3,120.079 ft
15 m49.213 ft
GRAVEL-G /


METAR
Observation PAKH 180156Z AUTO 00000KT SCT027 BKN034 OVC060 06/03 A2906 RMK AO2 SLP842 P0003 T00560028 PWINO $
Station AKHIOK
Date/Time 18 October 2019 01:56:00
Wind direction
Wind speed 00 kts
Lowest cloud amount scattered clouds
Temperature 5.6°C
Dew point 2.8°C
Humidity 82%
QNH hPa
Weather condition n/a

Maps

Terrain

Loading map...

Airport Layout

Loading map...


Accidents & Serious Incidents at or in vicinity of PAKH

None on SKYbrary